North Dighton, MA

41° 51' 30"N, 71° 08' 44"W, Elevation 95 ft.
Eastern Time

Hourly observations for the last 72 hours

Date Time Temperature (°F) Humi-
dity

(%)
Wind
(mph)
Pressure Rain (in) Sun
(W/m2)
UV ET
(in)
Air Dew 6 Hour 1 Hr 3 Hr 6 Hr Day
Alt
(in)
Sea
Level

(mb)
Max Min
21 17:00 37.9 34.7 88 Calm 30.06 1018.1 0.00 0 0.0 0.051
21 16:00 45.5 35.2 67 WSW 1 G 3 30.06 1018.1 0.00 12 0.0 0.050
21 15:00 47.7 36.1 64 WSW 1 G 6 30.05 1017.6 0.00 44 0.0 0.046
21 14:00 47.6 36.4 65 NW 3 G 7 30.06 1017.8 0.00 339 0.7 0.038
21 13:00 47.0 36.2 47.0 31.5 66 N 6 G 12 30.06 1018.0 0.00 450 1.2 0.029
21 12:00 45.9 37.0 71 WNW 5 G 14 30.09 1019.0 0.00 492 1.5 0.020
21 11:00 43.6 36.2 75 NNW 8 G 13 30.11 1019.6 0.00 489 1.4 0.012
21 10:00 41.3 35.9 81 NW 4 G 11 30.12 1019.9 0.00 427 1.1 0.006
21 09:00 38.5 33.8 83 NNW 8 G 13 30.12 1020.1 0.00 320 0.6 0.002
21 08:00 35.0 32.4 90 NNW 7 G 12 30.12 1020.0 0.00 199 0.0 0.000
21 07:00 31.6 29.8 35.3 31.6 93 WNW 3 G 7 30.11 1019.7 0.00 14 0.0 0.000
21 06:00 32.4 30.6 93 NW 5 G 10 30.08 1018.8 0.00 0 0.0 0.000
21 05:00 32.8 31.0 93 NW 5 G 9 30.06 1017.9 0.00 0 0.0 0.000
21 04:00 33.3 31.5 93 NW 8 G 12 30.04 1017.2 0.00 0 0.0 0.000
21 03:00 33.7 32.2 94 NW 6 G 12 30.03 1016.9 0.00 0 0.0 0.000
21 02:00 34.4 32.9 94 NW 7 G 12 30.02 1016.7 0.00 0 0.0 0.000
21 01:00 35.2 33.4 37.4 35.2 93 NW 5 G 10 30.00 1015.8 0.01 0.00 0 0.0 0.000
21 00:00 36.4 34.8 94 NW 6 G 12 30.00 1015.8 0.15 0 0.0 0.010
20 23:00 36.4 34.8 94 NW 6 G 15 29.98 1015.3 0.15 0 0.0 0.010
20 22:00 36.8 35.2 94 NW 10 G 13 29.98 1015.2 0.01 0.01 0.15 0 0.0 0.010
20 21:00 36.7 35.4 95 NW 8 G 12 29.97 1014.9 0.14 0 0.0 0.010
20 20:00 37.1 35.8 95 NW 8 G 12 29.95 1014.4 0.14 0 0.0 0.010
20 19:00 37.4 36.1 39.2 37.4 95 NNW 7 G 15 29.94 1013.9 0.02 0.09 0.14 0 0.0 0.010
20 18:00 37.6 36.0 94 N 2 G 5 29.93 1013.5 0.01 0.14 0 0.0 0.010
20 17:00 37.7 36.1 94 N 1 G 4 29.91 1012.9 0.01 0.13 0 0.0 0.010
20 16:00 37.8 36.2 94 N 4 G 7 29.89 1012.4 0.02 0.07 0.12 7 0.0 0.010
20 15:00 38.1 36.5 94 N 5 G 10 29.88 1011.9 0.02 0.10 49 0.0 0.009
20 14:00 38.8 37.2 94 NNW 5 G 10 29.87 1011.6 0.03 0.08 58 0.0 0.008
20 13:00 39.2 37.6 40.7 39.2 94 N 7 G 12 29.86 1011.3 0.03 0.05 0.05 0.05 60 0.0 0.006
20 12:00 40.0 38.4 94 NNW 6 G 12 29.86 1011.2 0.02 0.02 123 0.6 0.005
20 11:00 40.2 38.9 95 N 10 G 14 29.86 1011.2 0.00 79 0.0 0.003
20 10:00 40.6 39.5 96 NNE 4 G 11 29.87 1011.5 0.00 123 0.0 0.001
20 09:00 40.2 39.2 96 NNW 6 G 10 29.86 1011.3 0.00 60 0.0 0.000
20 08:00 39.6 38.6 96 NNW 4 G 9 29.85 1011.0 0.00 28 0.0 0.000
20 07:00 39.4 38.1 40.7 39.2 95 NNW 6 G 10 29.84 1010.4 0.00 5 0.0 0.000
20 06:00 39.3 38.0 95 N 4 G 9 29.84 1010.4 0.00 0 0.0 0.000
20 05:00 39.3 37.7 94 NNW 4 G 8 29.82 1009.9 0.00 0 0.0 0.000
20 04:00 39.6 38.0 94 NNW 3 G 6 29.82 1009.8 0.00 0 0.0 0.000
20 03:00 40.1 37.7 91 N 4 G 6 29.81 1009.4 0.00 0 0.0 0.000
20 02:00 40.4 38.0 91 N 5 G 8 29.81 1009.4 0.00 0 0.0 0.000
20 01:00 40.7 38.6 43.0 40.7 92 N 2 G 5 29.82 1010.0 0.00 0 0.0 0.000
20 00:00 41.1 39.2 93 N 5 G 9 29.81 1009.5 0.21 0 0.0 0.014
19 23:00 41.5 39.4 92 N 1 G 5 29.83 1010.1 0.21 0 0.0 0.014
19 22:00 41.8 39.1 90 N 2 G 4 29.83 1010.2 0.21 0 0.0 0.014
19 21:00 42.1 39.1 89 NNW 1 G 2 29.84 1010.5 0.21 0 0.0 0.014
19 20:00 42.5 39.2 88 NNW 1 G 6 29.83 1010.1 0.21 0 0.0 0.014
19 19:00 43.0 39.7 45.9 42.9 88 NW 4 G 6 29.82 1009.9 0.21 0 0.0 0.014
19 18:00 43.7 41.2 91 NNW 2 G 3 29.82 1009.8 0.21 0 0.0 0.014
19 17:00 44.6 41.3 88 SSW 1 G 2 29.80 1009.2 0.21 0 0.0 0.014
19 16:00 45.2 41.0 85 W 1 G 4 29.77 1008.3 0.21 9 0.0 0.013
19 15:00 45.5 41.6 86 WNW 3 G 6 29.75 1007.3 0.21 60 0.0 0.011
19 14:00 45.6 42.5 89 WNW 6 G 10 29.73 1006.8 0.21 111 0.0 0.009
19 13:00 45.9 44.3 46.1 38.7 94 WSW 3 G 8 29.73 1006.8 0.01 0.01 0.21 91 0.0 0.006
19 12:00 44.4 43.3 96 WSW 3 G 6 29.73 1006.9 0.21 118 0.6 0.003
19 11:00 42.7 41.9 97 SSW 1 G 4 29.74 1007.0 0.01 0.21 74 0.0 0.002
19 10:00 41.5 40.7 97 SE 1 G 3 29.74 1007.0 0.20 70 0.0 0.001
19 09:00 40.4 39.4 96 ESE 0 G 1 29.74 1007.0 0.20 58 0.0 0.000
19 08:00 39.5 38.7 97 ESE 0 G 1 29.74 1007.0 0.20 51 0.0 0.000
19 07:00 38.8 37.8 38.9 38.6 96 ESE 1 G 1 29.74 1007.0 0.11 0.20 0.20 0.20 9 0.0 0.000
19 06:00 38.7 37.7 96 E 0 G 2 29.71 1006.3 0.06 0.09 0 0.0 0.000
19 05:00 38.8 37.8 96 Calm 29.70 1006.0 0.03 0.03 0 0.0 0.000
19 04:00 38.8 37.5 95 Calm 29.70 1005.7 0.00 0 0.0 0.000
19 03:00 38.8 37.5 95 W 1 G 3 29.68 1005.3 0.00 0 0.0 0.000
19 02:00 38.8 37.5 95 NW 3 G 5 29.68 1005.2 0.00 0 0.0 0.000
19 01:00 38.7 37.1 38.8 38.2 94 WNW 3 G 5 29.67 1004.7 0.00 0 0.0 0.000
19 00:00 38.7 37.1 94 NW 4 G 6 29.66 1004.5 0.27 0 0.0 0.015
18 23:00 38.5 37.2 95 NNW 4 G 9 29.63 1003.5 0.27 0 0.0 0.015
18 22:00 38.5 37.2 95 N 6 G 10 29.63 1003.4 0.27 0 0.0 0.015
18 21:00 38.5 37.2 95 N 7 G 13 29.65 1004.2 0.27 0 0.0 0.015
18 20:00 38.3 37.0 95 N 8 G 15 29.65 1004.0 0.27 0 0.0 0.015
18 19:00 38.2 36.9 39.1 37.1 95 N 13 G 18 29.63 1003.6 0.01 0.09 0.27 0 0.0 0.015
18 18:00 38.4 37.1 95 N 10 G 18 29.65 1004.0 0.27 0 0.0 0.015

Data generated by WxSolution Version 1.9.1.7, Build 2018.11.24.